createdAt,value
2017-08-03T00:00:00.724Z,99.99
2017-08-03T00:01:01.299Z,99.99
2017-08-03T00:02:01.875Z,99.99
2017-08-03T00:03:02.450Z,99.99
2017-08-03T00:04:03.025Z,99.99
2017-08-03T00:05:03.601Z,99.99
2017-08-03T00:06:04.176Z,99.99
2017-08-03T00:07:04.763Z,99.99
2017-08-03T00:08:05.339Z,99.99
2017-08-03T00:09:05.915Z,99.99
2017-08-03T00:10:06.491Z,99.99
2017-08-03T00:11:07.067Z,99.99
2017-08-03T00:12:07.643Z,99.99
2017-08-03T00:13:08.219Z,99.99
2017-08-03T00:14:08.795Z,99.99
2017-08-03T00:15:09.371Z,99.99
2017-08-03T00:16:09.947Z,99.99
2017-08-03T00:17:10.525Z,99.99
2017-08-03T00:18:11.101Z,99.99
2017-08-03T00:19:11.679Z,99.99
2017-08-03T00:20:12.254Z,99.99
2017-08-03T00:21:12.831Z,99.99
2017-08-03T00:22:13.420Z,99.99
2017-08-03T00:23:14.005Z,99.99
2017-08-03T00:24:14.581Z,99.99
2017-08-03T00:25:15.156Z,99.99
2017-08-03T00:26:15.733Z,99.99
2017-08-03T00:27:16.307Z,99.99
2017-08-03T00:28:16.884Z,99.99
2017-08-03T00:29:17.459Z,99.99
2017-08-03T00:30:18.040Z,99.99
2017-08-03T00:31:18.610Z,99.99
2017-08-03T00:32:19.187Z,99.99
2017-08-03T00:33:19.761Z,99.99
2017-08-03T00:34:20.338Z,99.99
2017-08-03T00:35:20.913Z,99.99
2017-08-03T00:36:21.490Z,99.99
2017-08-03T00:37:22.065Z,99.99
2017-08-03T00:38:22.640Z,99.99
2017-08-03T00:39:23.215Z,99.99
2017-08-03T00:40:23.790Z,99.99
2017-08-03T00:41:24.363Z,99.99
2017-08-03T00:42:24.940Z,99.99
2017-08-03T00:43:25.515Z,99.99
2017-08-03T00:44:26.093Z,99.99
2017-08-03T00:45:26.665Z,99.99
2017-08-03T00:46:27.241Z,99.99
2017-08-03T00:47:27.817Z,99.99
2017-08-03T00:48:28.405Z,99.99
2017-08-03T00:49:28.982Z,99.99
2017-08-03T00:50:29.557Z,99.99
2017-08-03T00:51:30.136Z,99.99
2017-08-03T00:52:30.711Z,99.99
2017-08-03T00:53:31.288Z,99.99
2017-08-03T00:54:31.863Z,99.99
2017-08-03T00:55:32.438Z,99.99
2017-08-03T00:56:33.015Z,99.99
2017-08-03T00:57:33.592Z,99.99
2017-08-03T00:58:34.168Z,99.99
2017-08-03T00:59:34.744Z,99.99
2017-08-03T01:00:35.320Z,99.99
2017-08-03T01:01:35.895Z,99.99
2017-08-03T01:02:36.471Z,99.99
2017-08-03T01:03:37.047Z,99.99
2017-08-03T01:04:37.622Z,99.99
2017-08-03T01:05:38.198Z,99.99
2017-08-03T01:06:38.783Z,99.99
2017-08-03T01:07:39.360Z,99.99
2017-08-03T01:08:39.936Z,99.99
2017-08-03T01:09:40.513Z,99.99
2017-08-03T01:10:41.091Z,99.99
2017-08-03T01:11:41.665Z,99.99
2017-08-03T01:12:42.243Z,99.99
2017-08-03T01:13:42.820Z,99.99
2017-08-03T01:14:43.397Z,99.99
2017-08-03T01:15:43.985Z,99.99
2017-08-03T01:16:44.561Z,99.99
2017-08-03T01:17:45.139Z,99.99
2017-08-03T01:18:45.716Z,99.99
2017-08-03T01:19:46.292Z,99.99
2017-08-03T01:20:46.868Z,99.99
2017-08-03T01:21:47.445Z,99.99
2017-08-03T01:22:48.020Z,99.99
2017-08-03T01:23:48.597Z,99.99
2017-08-03T01:24:49.173Z,99.99
2017-08-03T01:25:49.749Z,99.99
2017-08-03T01:27:03.061Z,99.99
2017-08-03T01:28:03.638Z,99.99
2017-08-03T01:29:04.215Z,99.99
2017-08-03T01:30:04.791Z,99.99
2017-08-03T01:31:05.379Z,99.99
2017-08-03T01:32:05.956Z,99.99
2017-08-03T01:33:06.540Z,99.99
2017-08-03T01:34:07.112Z,99.99
2017-08-03T01:35:07.697Z,99.99
2017-08-03T01:36:08.285Z,99.99
2017-08-03T01:37:08.861Z,99.99
2017-08-03T01:38:09.435Z,99.99
2017-08-03T01:39:10.012Z,99.99
2017-08-03T01:40:10.587Z,99.99
2017-08-03T01:41:11.163Z,99.99
2017-08-03T01:42:11.739Z,99.99
2017-08-03T01:43:12.315Z,99.99
2017-08-03T01:44:12.891Z,99.99
2017-08-03T01:45:13.467Z,99.99
2017-08-03T01:46:14.044Z,99.99
2017-08-03T01:47:14.621Z,99.99
2017-08-03T01:48:15.197Z,99.99
2017-08-03T01:49:15.771Z,99.99
2017-08-03T01:50:16.358Z,99.99
2017-08-03T01:51:16.934Z,99.99
2017-08-03T01:52:17.511Z,99.99
2017-08-03T01:53:18.088Z,99.99
2017-08-03T01:54:18.664Z,99.99
2017-08-03T01:55:19.251Z,99.99
2017-08-03T01:56:19.824Z,99.99
2017-08-03T01:57:20.400Z,99.99
2017-08-03T01:58:20.974Z,99.99
2017-08-03T01:59:21.549Z,99.99
2017-08-03T02:00:22.125Z,99.99
2017-08-03T02:01:22.700Z,99.99
2017-08-03T02:02:23.289Z,99.99
2017-08-03T02:03:23.870Z,99.99
2017-08-03T02:04:24.445Z,99.99
2017-08-03T02:05:25.022Z,99.99
2017-08-03T02:06:25.601Z,99.99
2017-08-03T02:07:26.174Z,99.99
2017-08-03T02:08:26.748Z,99.99
2017-08-03T02:09:27.333Z,99.99
2017-08-03T02:10:27.910Z,99.99
2017-08-03T02:11:28.487Z,99.99
2017-08-03T02:12:29.064Z,99.99
2017-08-03T02:13:29.640Z,99.99
2017-08-03T02:14:30.215Z,99.99
2017-08-03T02:15:30.791Z,99.99
2017-08-03T02:16:31.369Z,99.99
2017-08-03T02:17:31.944Z,99.99
2017-08-03T02:18:32.520Z,99.99
2017-08-03T02:19:33.096Z,99.99
2017-08-03T02:20:33.673Z,99.99
2017-08-03T02:21:34.261Z,99.99
2017-08-03T02:22:34.837Z,99.99
2017-08-03T02:23:35.416Z,99.99
2017-08-03T02:24:35.994Z,99.99
2017-08-03T02:25:36.577Z,99.99
2017-08-03T02:26:37.152Z,99.99
2017-08-03T02:27:37.726Z,99.99
2017-08-03T02:28:38.314Z,99.99
2017-08-03T02:29:38.889Z,99.99
2017-08-03T02:30:39.467Z,99.99
2017-08-03T02:31:40.043Z,99.99
2017-08-03T02:32:40.620Z,99.99
2017-08-03T02:33:41.195Z,99.99
2017-08-03T02:34:41.770Z,99.99
2017-08-03T02:35:42.349Z,99.99
2017-08-03T02:36:42.921Z,99.99
2017-08-03T02:37:43.496Z,99.99
2017-08-03T02:38:44.073Z,99.99
2017-08-03T02:39:44.648Z,99.99
2017-08-03T02:40:45.223Z,99.99
2017-08-03T02:41:45.799Z,99.99
2017-08-03T02:42:46.376Z,99.99
2017-08-03T02:43:46.951Z,99.99
2017-08-03T02:44:47.527Z,99.99
2017-08-03T02:45:48.100Z,99.99
2017-08-03T02:46:48.678Z,99.99
2017-08-03T02:47:49.264Z,99.99
2017-08-03T02:48:49.838Z,99.99
2017-08-03T02:49:50.416Z,99.99
2017-08-03T02:50:50.991Z,99.99
2017-08-03T02:51:51.570Z,99.99
2017-08-03T02:52:52.145Z,99.99
2017-08-03T02:53:52.720Z,99.99
2017-08-03T02:54:53.295Z,99.99
2017-08-03T02:55:53.872Z,99.99
2017-08-03T02:56:54.447Z,99.99
2017-08-03T02:57:55.027Z,99.99
2017-08-03T02:58:55.610Z,99.99
2017-08-03T02:59:56.185Z,99.99
2017-08-03T03:00:56.764Z,99.99
2017-08-03T03:01:57.351Z,99.99
2017-08-03T03:02:57.925Z,99.99
2017-08-03T03:03:58.511Z,99.99
2017-08-03T03:04:59.088Z,99.99
2017-08-03T03:05:59.665Z,99.99
2017-08-03T03:07:00.239Z,99.99
2017-08-03T03:08:00.816Z,99.99
2017-08-03T03:09:01.391Z,99.99
2017-08-03T03:10:01.967Z,99.99
2017-08-03T03:11:02.543Z,99.99
2017-08-03T03:12:03.121Z,99.99
2017-08-03T03:13:03.697Z,99.99
2017-08-03T03:14:04.273Z,99.99
2017-08-03T03:15:04.849Z,99.99
2017-08-03T03:16:05.425Z,99.99
2017-08-03T03:17:06.003Z,99.99
2017-08-03T03:18:06.574Z,99.99
2017-08-03T03:19:07.168Z,99.99
2017-08-03T03:20:07.731Z,99.99
2017-08-03T03:21:08.302Z,99.99
2017-08-03T03:22:08.877Z,99.99
2017-08-03T03:23:09.464Z,99.99
2017-08-03T03:24:10.038Z,99.99
2017-08-03T03:25:10.616Z,99.99
2017-08-03T03:26:11.191Z,99.99
2017-08-03T03:27:11.769Z,99.99
2017-08-03T03:28:12.344Z,99.99
2017-08-03T03:29:12.932Z,99.99
2017-08-03T03:30:13.510Z,99.99
2017-08-03T03:31:14.086Z,99.99
2017-08-03T03:32:14.671Z,99.99
2017-08-03T03:33:15.246Z,99.99
2017-08-03T03:34:15.822Z,99.99
2017-08-03T03:35:16.396Z,99.99
2017-08-03T03:36:16.971Z,99.99
2017-08-03T03:37:17.552Z,99.99
2017-08-03T03:38:18.122Z,99.99
2017-08-03T03:39:18.696Z,99.99
2017-08-03T03:40:19.271Z,99.99
2017-08-03T03:41:19.847Z,99.99
2017-08-03T03:42:20.424Z,99.99
2017-08-03T03:43:20.998Z,99.99
2017-08-03T03:44:21.575Z,99.99
2017-08-03T03:45:22.150Z,99.99
2017-08-03T03:46:22.727Z,99.99
2017-08-03T03:47:23.314Z,99.99
2017-08-03T03:48:23.889Z,99.99
2017-08-03T03:49:24.466Z,99.99
2017-08-03T03:50:25.053Z,99.99
2017-08-03T03:51:25.627Z,99.99
2017-08-03T03:52:26.202Z,99.99
2017-08-03T03:53:26.775Z,99.99
2017-08-03T03:54:27.350Z,99.99
2017-08-03T03:55:27.948Z,99.99
2017-08-03T03:56:28.500Z,99.99
2017-08-03T03:57:29.075Z,99.99
2017-08-03T03:58:29.650Z,99.99
2017-08-03T03:59:30.227Z,99.99
2017-08-03T04:00:30.804Z,99.99
2017-08-03T04:01:31.377Z,99.99
2017-08-03T04:02:31.953Z,99.99
2017-08-03T04:03:32.527Z,99.99
2017-08-03T04:04:33.103Z,99.99
2017-08-03T04:05:33.691Z,99.99
2017-08-03T04:06:34.267Z,99.99
2017-08-03T04:07:34.854Z,99.99
2017-08-03T04:08:35.419Z,99.99
2017-08-03T04:09:36.009Z,99.99
2017-08-03T04:10:36.580Z,99.99
2017-08-03T04:11:37.155Z,99.99
2017-08-03T04:12:37.730Z,99.99
2017-08-03T04:13:38.304Z,99.99
2017-08-03T04:14:38.879Z,99.99
2017-08-03T04:15:39.453Z,99.99
2017-08-03T04:16:40.032Z,99.99
2017-08-03T04:17:40.619Z,99.99
2017-08-03T04:18:41.196Z,99.99
2017-08-03T04:19:41.774Z,99.99
2017-08-03T04:20:42.350Z,99.99
2017-08-03T04:21:42.926Z,99.99
2017-08-03T04:22:43.516Z,99.99
2017-08-03T04:23:44.091Z,99.99
2017-08-03T04:24:44.669Z,99.99
2017-08-03T04:25:45.254Z,99.99
2017-08-03T04:26:45.830Z,99.99
2017-08-03T04:27:46.406Z,99.99
2017-08-03T04:28:46.982Z,99.99
2017-08-03T04:29:47.560Z,99.99
2017-08-03T04:30:48.137Z,99.99
2017-08-03T04:31:48.716Z,99.99
2017-08-03T04:32:49.293Z,99.99
2017-08-03T04:33:49.871Z,99.99
2017-08-03T04:34:50.446Z,99.99
2017-08-03T04:35:51.025Z,99.99
2017-08-03T04:36:51.602Z,99.99
2017-08-03T04:37:52.178Z,99.99
2017-08-03T04:38:52.753Z,99.99
2017-08-03T04:39:53.341Z,99.99
2017-08-03T04:40:53.919Z,99.99
2017-08-03T04:41:54.496Z,99.99
2017-08-03T04:42:55.073Z,99.99
2017-08-03T04:43:55.648Z,99.99
2017-08-03T04:44:56.225Z,99.99
2017-08-03T04:45:56.804Z,99.99
2017-08-03T04:46:57.378Z,99.99
2017-08-03T04:47:57.954Z,99.99
2017-08-03T04:48:58.531Z,99.99
2017-08-03T04:49:59.105Z,99.99
2017-08-03T04:50:59.683Z,99.99
2017-08-03T04:52:00.269Z,99.99
2017-08-03T04:53:00.846Z,99.99
2017-08-03T04:54:01.423Z,99.99
2017-08-03T04:55:01.999Z,99.99
2017-08-03T04:56:02.576Z,99.99
2017-08-03T04:57:03.153Z,99.99
2017-08-03T04:58:03.727Z,99.99
2017-08-03T04:59:04.305Z,99.99
2017-08-03T05:00:04.881Z,99.99
2017-08-03T05:01:05.457Z,99.99
2017-08-03T05:02:06.033Z,99.99
2017-08-03T05:03:06.611Z,99.99
2017-08-03T05:04:07.187Z,99.99
2017-08-03T05:05:07.770Z,99.99
2017-08-03T05:06:08.343Z,99.99
2017-08-03T05:07:08.923Z,99.99
2017-08-03T05:08:09.499Z,99.99
2017-08-03T05:09:10.076Z,99.99
2017-08-03T05:10:10.652Z,99.99
2017-08-03T05:11:11.230Z,99.99
2017-08-03T05:12:11.819Z,99.99
2017-08-03T05:13:12.396Z,99.99
2017-08-03T05:14:12.975Z,99.99
2017-08-03T05:15:13.553Z,99.99
2017-08-03T05:16:14.136Z,99.99
2017-08-03T05:17:14.719Z,99.99
2017-08-03T05:18:15.296Z,99.99
2017-08-03T05:19:15.874Z,99.99
2017-08-03T05:20:16.455Z,99.99
2017-08-03T05:21:17.028Z,99.99
2017-08-03T05:22:17.606Z,99.99
2017-08-03T05:23:18.183Z,99.99
2017-08-03T05:24:18.763Z,99.99
2017-08-03T05:25:19.342Z,99.99
2017-08-03T05:26:19.920Z,99.99
2017-08-03T05:27:20.496Z,99.99
2017-08-03T05:28:21.075Z,99.99
2017-08-03T05:29:21.655Z,99.99
2017-08-03T05:30:22.232Z,99.99
2017-08-03T05:31:22.808Z,99.99
2017-08-03T05:32:23.386Z,99.99
2017-08-03T05:33:23.964Z,99.99
2017-08-03T05:34:24.544Z,99.99
2017-08-03T05:35:25.122Z,99.99
2017-08-03T05:36:25.697Z,99.99
2017-08-03T05:37:26.277Z,99.99
2017-08-03T05:38:26.853Z,99.99
2017-08-03T05:39:27.430Z,99.99
2017-08-03T05:40:28.020Z,99.99
2017-08-03T05:41:28.598Z,99.99
2017-08-03T05:42:29.178Z,99.99
2017-08-03T05:43:29.756Z,99.99
2017-08-03T05:44:30.336Z,99.99
2017-08-03T05:45:30.916Z,99.99
2017-08-03T05:46:31.494Z,99.99
2017-08-03T05:47:32.075Z,99.99
2017-08-03T05:48:32.665Z,99.99
2017-08-03T05:49:33.243Z,99.99
2017-08-03T05:50:33.823Z,99.99
2017-08-03T05:51:34.401Z,99.99
2017-08-03T05:52:34.979Z,99.99
2017-08-03T05:53:35.556Z,99.99
2017-08-03T05:54:36.146Z,99.99
2017-08-03T05:55:36.723Z,99.99
2017-08-03T05:56:37.302Z,99.99
2017-08-03T05:57:37.880Z,99.99
2017-08-03T05:58:38.468Z,99.99
2017-08-03T05:59:39.046Z,99.99
2017-08-03T06:00:39.624Z,99.99
2017-08-03T06:01:40.202Z,99.99
2017-08-03T06:02:40.778Z,99.99
2017-08-03T06:03:41.357Z,99.99
2017-08-03T06:04:41.946Z,99.99
2017-08-03T06:05:42.535Z,99.99
2017-08-03T06:06:43.115Z,99.99
2017-08-03T06:07:43.693Z,99.99
2017-08-03T06:08:44.273Z,99.99
2017-08-03T06:09:44.853Z,99.99
2017-08-03T06:10:45.432Z,99.99
2017-08-03T06:11:46.012Z,99.99
2017-08-03T06:12:46.590Z,99.99
2017-08-03T06:13:47.170Z,99.99
2017-08-03T06:14:47.749Z,99.99
2017-08-03T06:15:48.327Z,99.99
2017-08-03T06:16:48.906Z,99.99
2017-08-03T06:17:49.486Z,99.99
2017-08-03T06:18:50.067Z,99.99
2017-08-03T06:19:50.646Z,99.99
2017-08-03T06:20:51.225Z,99.99
2017-08-03T06:21:51.804Z,99.99
2017-08-03T06:22:52.384Z,99.99
2017-08-03T06:23:52.970Z,99.99
2017-08-03T06:24:53.544Z,99.99
2017-08-03T06:25:54.127Z,99.99
2017-08-03T06:26:54.714Z,99.99
2017-08-03T06:27:55.304Z,99.99
2017-08-03T06:28:55.884Z,99.99
2017-08-03T06:29:56.465Z,99.99
2017-08-03T06:30:57.045Z,99.99
2017-08-03T06:31:57.622Z,99.99
2017-08-03T06:32:58.202Z,99.99
2017-08-03T06:33:58.782Z,99.99
2017-08-03T06:34:59.362Z,99.99
2017-08-03T06:35:59.940Z,99.99
2017-08-03T06:37:00.520Z,99.99
2017-08-03T06:38:01.099Z,99.99
2017-08-03T06:39:01.677Z,99.99
2017-08-03T06:40:02.258Z,99.99
2017-08-03T06:41:02.835Z,99.99
2017-08-03T06:42:03.419Z,99.99
2017-08-03T06:43:03.991Z,99.99
2017-08-03T06:44:04.572Z,99.99
2017-08-03T06:45:05.149Z,99.99
2017-08-03T06:46:05.727Z,99.99
2017-08-03T06:47:06.305Z,99.99
2017-08-03T06:48:06.910Z,99.99
2017-08-03T06:49:07.464Z,99.99
2017-08-03T06:50:08.045Z,99.99
2017-08-03T06:51:08.625Z,99.99
2017-08-03T06:52:09.205Z,99.99
2017-08-03T06:53:09.795Z,99.99
2017-08-03T06:54:10.375Z,99.99
2017-08-03T06:55:10.954Z,99.99
2017-08-03T06:56:11.534Z,99.99
2017-08-03T06:57:12.114Z,99.99
2017-08-03T06:58:12.693Z,99.99
2017-08-03T06:59:13.274Z,99.99
2017-08-03T07:00:13.853Z,99.99
2017-08-03T07:01:14.433Z,99.99
2017-08-03T07:02:15.011Z,99.99
2017-08-03T07:03:15.590Z,99.99
2017-08-03T07:04:16.170Z,99.99
2017-08-03T07:05:16.749Z,99.99
2017-08-03T07:06:17.328Z,99.99
2017-08-03T07:07:17.907Z,99.99
2017-08-03T07:08:18.486Z,99.99
2017-08-03T07:09:19.063Z,99.99
2017-08-03T07:10:19.644Z,99.99
2017-08-03T07:11:20.225Z,99.99
2017-08-03T07:12:20.804Z,99.99
2017-08-03T07:13:21.383Z,99.99
2017-08-03T07:14:21.962Z,99.99
2017-08-03T07:15:22.540Z,99.99
2017-08-03T07:16:23.121Z,99.99
2017-08-03T07:17:23.713Z,99.99
2017-08-03T07:18:24.294Z,99.99
2017-08-03T07:19:24.873Z,99.99
2017-08-03T07:20:25.454Z,99.99
2017-08-03T07:21:26.033Z,99.99
2017-08-03T07:22:26.611Z,99.99
2017-08-03T07:23:27.190Z,99.99
2017-08-03T07:24:27.768Z,99.99
2017-08-03T07:25:28.348Z,99.99
2017-08-03T07:26:28.930Z,99.99
2017-08-03T07:27:29.509Z,99.99
2017-08-03T07:28:30.088Z,99.99
2017-08-03T07:29:30.667Z,99.99
2017-08-03T07:30:31.247Z,99.99
2017-08-03T07:31:31.829Z,99.99
2017-08-03T07:32:32.408Z,99.99
2017-08-03T07:33:32.990Z,99.99
2017-08-03T07:34:33.568Z,99.99
2017-08-03T07:35:34.148Z,99.99
2017-08-03T07:36:34.727Z,99.99
2017-08-03T07:37:35.308Z,99.99
2017-08-03T07:38:35.890Z,99.99
2017-08-03T07:39:36.470Z,99.99
2017-08-03T07:40:37.061Z,99.99
2017-08-03T07:41:37.650Z,99.99
2017-08-03T07:42:38.240Z,99.99
2017-08-03T07:43:38.819Z,99.99
2017-08-03T07:44:39.397Z,99.99
2017-08-03T07:45:39.976Z,99.99
2017-08-03T07:46:40.568Z,99.99
2017-08-03T07:47:41.147Z,99.99
2017-08-03T07:48:41.727Z,99.99
2017-08-03T07:49:42.318Z,99.99
2017-08-03T07:50:42.897Z,99.99
2017-08-03T07:51:43.476Z,99.99
2017-08-03T07:52:44.054Z,99.99
2017-08-03T07:53:44.637Z,99.99
2017-08-03T07:54:45.218Z,99.55
2017-08-03T07:55:45.799Z,99.35
2017-08-03T07:56:46.378Z,99.55
2017-08-03T07:57:46.958Z,99.35
2017-08-03T07:58:47.537Z,99.99
2017-08-03T07:59:48.118Z,96.94
2017-08-03T08:00:48.700Z,97.81
2017-08-03T08:01:49.279Z,97.81
2017-08-03T08:02:49.862Z,98.97
2017-08-03T08:03:50.460Z,97.33
2017-08-03T08:04:51.029Z,99.07
2017-08-03T08:05:51.609Z,97.91
2017-08-03T08:06:52.189Z,96.46
2017-08-03T08:07:52.769Z,95.69
2017-08-03T08:08:53.352Z,93.32
2017-08-03T08:09:53.933Z,94.10
2017-08-03T08:10:54.514Z,89.56
2017-08-03T08:11:55.094Z,88.98
2017-08-03T08:12:55.674Z,90.14
2017-08-03T08:13:56.256Z,89.95
2017-08-03T08:14:56.836Z,91.30
2017-08-03T08:15:57.417Z,90.62
2017-08-03T08:16:57.997Z,91.30
2017-08-03T08:17:58.576Z,90.14
2017-08-03T08:18:59.157Z,90.14
2017-08-03T08:19:59.737Z,88.89
2017-08-03T08:21:00.328Z,89.17
2017-08-03T08:22:00.909Z,86.38
2017-08-03T08:23:01.490Z,87.92
2017-08-03T08:24:02.072Z,88.31
2017-08-03T08:25:02.652Z,88.45
2017-08-03T08:26:03.232Z,86.96
2017-08-03T08:27:03.812Z,87.97
2017-08-03T08:28:04.394Z,86.91
2017-08-03T08:29:04.977Z,87.88
2017-08-03T08:30:05.554Z,90.38
2017-08-03T08:31:06.134Z,91.06
2017-08-03T08:32:06.714Z,91.25
2017-08-03T08:33:07.293Z,91.44
2017-08-03T08:34:07.874Z,91.06
2017-08-03T08:35:08.454Z,91.98
2017-08-03T08:36:09.036Z,91.02
2017-08-03T08:37:09.616Z,91.35
2017-08-03T08:38:10.196Z,92.08
2017-08-03T08:39:10.776Z,93.71
2017-08-03T08:40:11.356Z,92.94
2017-08-03T08:41:11.938Z,94.78
2017-08-03T08:42:12.529Z,95.06
2017-08-03T08:43:13.110Z,96.03
2017-08-03T08:44:13.690Z,95.50
2017-08-03T08:45:14.271Z,96.12
2017-08-03T08:46:14.851Z,97.28
2017-08-03T08:47:15.429Z,97.19
2017-08-03T08:48:16.009Z,99.16
2017-08-03T08:49:16.587Z,98.49
2017-08-03T08:50:17.168Z,98.15
2017-08-03T08:51:17.750Z,97.96
2017-08-03T08:52:18.329Z,98.29
2017-08-03T08:53:18.910Z,98.73
2017-08-03T08:54:19.490Z,99.07
2017-08-03T08:55:20.070Z,97.52
2017-08-03T08:56:20.651Z,97.96
2017-08-03T08:57:21.231Z,97.86
2017-08-03T08:58:21.812Z,98.34
2017-08-03T08:59:22.391Z,99.02
2017-08-03T09:00:22.970Z,97.67
2017-08-03T09:01:23.551Z,98.15
2017-08-03T09:02:24.130Z,98.92
2017-08-03T09:03:24.713Z,98.73
2017-08-03T09:04:25.291Z,97.96
2017-08-03T09:05:25.872Z,98.97
2017-08-03T09:06:26.451Z,99.99
2017-08-03T09:07:27.051Z,99.99
2017-08-03T09:08:27.611Z,99.99
2017-08-03T09:09:28.207Z,99.99
2017-08-03T09:10:28.782Z,99.99
2017-08-03T09:11:29.364Z,99.99
2017-08-03T09:12:29.944Z,99.99
2017-08-03T09:13:30.525Z,99.99
2017-08-03T09:14:31.104Z,99.99
2017-08-03T09:15:31.682Z,99.99
2017-08-03T09:16:32.262Z,99.99
2017-08-03T09:17:32.843Z,99.99
2017-08-03T09:18:33.423Z,99.99
2017-08-03T09:19:34.002Z,99.99
2017-08-03T09:20:34.583Z,99.99
2017-08-03T09:21:35.163Z,99.99
2017-08-03T09:22:35.763Z,99.99
2017-08-03T09:23:36.325Z,99.99
2017-08-03T09:24:36.906Z,99.99
2017-08-03T09:25:37.487Z,99.99
2017-08-03T09:26:38.065Z,99.99
2017-08-03T09:27:38.645Z,99.99
2017-08-03T09:28:39.225Z,99.99
2017-08-03T09:29:39.805Z,99.99
2017-08-03T09:30:40.387Z,98.20
2017-08-03T09:31:40.966Z,99.94
2017-08-03T09:32:41.549Z,98.20
2017-08-03T09:33:42.129Z,99.16
2017-08-03T09:34:42.708Z,99.36
2017-08-03T09:35:43.290Z,96.75
2017-08-03T09:36:43.871Z,97.24
2017-08-03T09:37:44.453Z,95.78
2017-08-03T09:38:45.034Z,94.14
2017-08-03T09:39:45.614Z,94.53
2017-08-03T09:40:46.193Z,93.90
2017-08-03T09:41:46.774Z,93.80
2017-08-03T09:42:47.355Z,92.74
2017-08-03T09:43:47.947Z,93.32
2017-08-03T09:44:48.528Z,91.77
2017-08-03T09:45:49.110Z,92.25
2017-08-03T09:46:49.702Z,89.89
2017-08-03T09:47:50.282Z,89.89
2017-08-03T09:48:50.863Z,89.75
2017-08-03T09:49:51.444Z,89.94
2017-08-03T09:50:52.023Z,90.91
2017-08-03T09:51:52.603Z,90.03
2017-08-03T09:52:53.185Z,90.23
2017-08-03T09:53:53.768Z,87.91
2017-08-03T09:54:54.347Z,88.87
2017-08-03T09:55:54.929Z,89.07
2017-08-03T09:56:55.509Z,88.24
2017-08-03T09:57:56.090Z,87.47
2017-08-03T09:58:56.673Z,87.23
2017-08-03T09:59:57.262Z,88.43
2017-08-03T10:00:57.842Z,86.56
2017-08-03T10:01:58.436Z,87.04
2017-08-03T10:02:59.015Z,87.13
2017-08-03T10:03:59.596Z,86.94
2017-08-03T10:05:00.178Z,87.04
2017-08-03T10:06:00.761Z,87.33
2017-08-03T10:07:01.346Z,87.81
2017-08-03T10:08:01.924Z,86.94
2017-08-03T10:09:02.504Z,87.71
2017-08-03T10:10:03.087Z,87.85
2017-08-03T10:11:03.668Z,86.02
2017-08-03T10:12:04.249Z,87.33
2017-08-03T10:13:04.833Z,86.56
2017-08-03T10:14:05.424Z,87.08
2017-08-03T10:15:06.004Z,87.37
2017-08-03T10:16:06.592Z,86.41
2017-08-03T10:17:07.166Z,86.11
2017-08-03T10:18:07.747Z,86.11
2017-08-03T10:19:08.329Z,86.51
2017-08-03T10:20:08.912Z,86.41
2017-08-03T10:21:09.492Z,86.79
2017-08-03T10:22:10.071Z,86.21
2017-08-03T10:23:10.664Z,86.06
2017-08-03T10:24:11.244Z,86.21
2017-08-03T10:25:11.824Z,84.67
2017-08-03T10:26:12.403Z,85.44
2017-08-03T10:27:12.982Z,86.35
2017-08-03T10:28:13.564Z,85.44
2017-08-03T10:29:14.147Z,85.15
2017-08-03T10:30:14.729Z,84.86
2017-08-03T10:31:15.308Z,84.95
2017-08-03T10:32:15.900Z,84.63
2017-08-03T10:33:16.482Z,84.67
2017-08-03T10:34:17.063Z,84.86
2017-08-03T10:35:17.656Z,84.67
2017-08-03T10:36:18.249Z,84.52
2017-08-03T10:37:18.832Z,84.37
2017-08-03T10:38:19.413Z,84.37
2017-08-03T10:39:19.993Z,84.77
2017-08-03T10:40:20.573Z,84.37
2017-08-03T10:41:21.154Z,84.43
2017-08-03T10:42:21.736Z,85.30
2017-08-03T10:43:22.318Z,84.91
2017-08-03T10:44:22.902Z,86.07
2017-08-03T10:45:23.481Z,85.40
2017-08-03T10:46:24.061Z,85.40
2017-08-03T10:47:24.643Z,85.59
2017-08-03T10:48:25.224Z,86.90
2017-08-03T10:49:25.814Z,86.94
2017-08-03T10:50:26.387Z,85.94
2017-08-03T10:51:26.970Z,86.71
2017-08-03T10:52:27.559Z,86.71
2017-08-03T10:53:28.139Z,86.90
2017-08-03T10:54:28.719Z,86.80
2017-08-03T10:55:29.299Z,86.80
2017-08-03T10:56:29.882Z,86.90
2017-08-03T10:57:30.471Z,87.00
2017-08-03T10:58:31.050Z,87.00
2017-08-03T10:59:31.630Z,87.29
2017-08-03T11:00:32.221Z,86.13
2017-08-03T11:01:32.790Z,87.15
2017-08-03T11:02:33.373Z,87.92
2017-08-03T11:03:33.954Z,88.64
2017-08-03T11:04:34.535Z,88.35
2017-08-03T11:05:35.115Z,88.79
2017-08-03T11:06:35.697Z,88.40
2017-08-03T11:07:36.277Z,88.98
2017-08-03T11:08:36.857Z,89.27
2017-08-03T11:09:37.437Z,90.14
2017-08-03T11:10:38.017Z,90.00
2017-08-03T11:11:38.595Z,90.48
2017-08-03T11:12:39.176Z,90.67
2017-08-03T11:13:39.755Z,90.96
2017-08-03T11:14:40.347Z,91.44
2017-08-03T11:15:40.927Z,91.83
2017-08-03T11:16:41.506Z,91.93
2017-08-03T11:17:42.088Z,92.89
2017-08-03T11:18:42.668Z,92.89
2017-08-03T11:19:43.250Z,93.43
2017-08-03T11:20:43.830Z,94.39
2017-08-03T11:21:44.409Z,94.78
2017-08-03T11:22:44.989Z,94.73
2017-08-03T11:23:45.571Z,95.54
2017-08-03T11:24:46.152Z,96.32
2017-08-03T11:25:46.732Z,96.32
2017-08-03T11:26:47.324Z,95.79
2017-08-03T11:27:47.905Z,96.22
2017-08-03T11:28:48.485Z,96.80
2017-08-03T11:29:49.066Z,96.61
2017-08-03T11:30:49.644Z,97.19
2017-08-03T11:31:50.223Z,96.51
2017-08-03T11:32:50.804Z,96.61
2017-08-03T11:33:51.393Z,97.28
2017-08-03T11:34:51.967Z,97.86
2017-08-03T11:35:52.547Z,99.98
2017-08-03T11:36:53.126Z,99.99
2017-08-03T11:37:53.705Z,99.99
2017-08-03T11:38:54.285Z,99.99
2017-08-03T11:39:54.865Z,99.99
2017-08-03T11:40:55.446Z,99.99
2017-08-03T11:41:56.025Z,99.99
2017-08-03T11:42:56.606Z,99.99
2017-08-03T11:43:57.185Z,99.99
2017-08-03T11:44:57.764Z,99.99
2017-08-03T11:45:58.344Z,99.99
2017-08-03T11:46:58.925Z,99.99
2017-08-03T11:47:59.505Z,99.99
2017-08-03T11:49:00.096Z,99.99
2017-08-03T11:50:00.678Z,99.99
2017-08-03T11:51:01.259Z,99.99
2017-08-03T11:52:01.839Z,99.99
2017-08-03T11:53:02.418Z,99.99
2017-08-03T11:54:03.000Z,99.99
2017-08-03T11:55:03.582Z,99.99
2017-08-03T11:56:04.161Z,99.99
2017-08-03T11:57:04.740Z,99.99
2017-08-03T11:58:05.320Z,99.99
2017-08-03T11:59:05.899Z,99.99
2017-08-03T12:00:06.479Z,99.99
2017-08-03T12:01:07.059Z,99.99
2017-08-03T12:02:07.641Z,99.99
2017-08-03T12:03:08.235Z,99.99
2017-08-03T12:04:08.816Z,99.99
2017-08-03T12:05:09.411Z,99.99
2017-08-03T12:06:09.992Z,99.99
2017-08-03T12:07:10.584Z,99.99
2017-08-03T12:08:11.163Z,99.99
2017-08-03T12:09:11.744Z,96.56
2017-08-03T12:10:12.323Z,97.47
2017-08-03T12:11:12.903Z,97.57
2017-08-03T12:12:13.486Z,96.56
2017-08-03T12:13:14.067Z,96.27
2017-08-03T12:14:14.649Z,95.21
2017-08-03T12:15:15.229Z,94.68
2017-08-03T12:16:15.809Z,95.25
2017-08-03T12:17:16.391Z,95.16
2017-08-03T12:18:16.970Z,95.35
2017-08-03T12:19:17.552Z,94.29
2017-08-03T12:20:18.133Z,92.16
2017-08-03T12:21:18.712Z,90.91
2017-08-03T12:22:19.296Z,90.72
2017-08-03T12:23:19.876Z,89.95
2017-08-03T12:24:20.457Z,89.89
2017-08-03T12:25:21.038Z,89.41
2017-08-03T12:26:21.620Z,88.35
2017-08-03T12:27:22.203Z,87.38
2017-08-03T12:28:22.784Z,87.38
2017-08-03T12:29:23.365Z,86.32
2017-08-03T12:30:23.966Z,86.61
2017-08-03T12:31:24.528Z,86.94
2017-08-03T12:32:25.110Z,87.19
2017-08-03T12:33:25.689Z,87.19
2017-08-03T12:34:26.271Z,87.09
2017-08-03T12:35:26.852Z,87.29
2017-08-03T12:36:27.431Z,86.96
2017-08-03T12:37:28.023Z,87.38
2017-08-03T12:38:28.605Z,86.17
2017-08-03T12:39:29.198Z,86.11
2017-08-03T12:40:29.778Z,84.77
2017-08-03T12:41:30.357Z,83.89
2017-08-03T12:42:30.937Z,85.59
2017-08-03T12:43:31.521Z,85.69
2017-08-03T12:44:32.100Z,86.07
2017-08-03T12:45:32.683Z,84.24
2017-08-03T12:46:33.264Z,84.63
2017-08-03T12:47:33.857Z,84.14
2017-08-03T12:48:34.451Z,83.47
2017-08-03T12:49:35.032Z,83.03
2017-08-03T12:50:35.613Z,82.35
2017-08-03T12:51:36.194Z,83.16
2017-08-03T12:52:36.778Z,81.71
2017-08-03T12:53:37.360Z,80.26
2017-08-03T12:54:37.942Z,80.65
2017-08-03T12:55:38.535Z,79.35
2017-08-03T12:56:39.115Z,79.39
2017-08-03T12:57:39.728Z,78.67
2017-08-03T12:58:40.292Z,78.91
2017-08-03T12:59:40.874Z,78.36